sensor_id;sensor_type;location;lat;lon;timestamp;P1;durP1;ratioP1;P2;durP2;ratioP2
82030;SDS011;71592;52.178;4.512;2023-09-30T00:01:43;6.88;;;4.30;;
82030;SDS011;71592;52.178;4.512;2023-09-30T00:04:09;9.40;;;3.97;;
82030;SDS011;71592;52.178;4.512;2023-09-30T00:06:34;7.70;;;3.80;;
82030;SDS011;71592;52.178;4.512;2023-09-30T00:08:59;6.57;;;4.33;;
82030;SDS011;71592;52.178;4.512;2023-09-30T00:11:24;10.80;;;5.03;;
82030;SDS011;71592;52.178;4.512;2023-09-30T00:13:50;8.27;;;4.30;;
82030;SDS011;71592;52.178;4.512;2023-09-30T00:16:15;8.13;;;4.20;;
82030;SDS011;71592;52.178;4.512;2023-09-30T00:18:42;9.00;;;4.38;;
82030;SDS011;71592;52.178;4.512;2023-09-30T00:21:08;10.02;;;5.10;;
82030;SDS011;71592;52.178;4.512;2023-09-30T00:23:33;10.50;;;4.77;;
82030;SDS011;71592;52.178;4.512;2023-09-30T00:25:58;10.05;;;5.18;;
82030;SDS011;71592;52.178;4.512;2023-09-30T00:28:25;8.50;;;4.10;;
82030;SDS011;71592;52.178;4.512;2023-09-30T00:30:50;7.07;;;4.00;;
82030;SDS011;71592;52.178;4.512;2023-09-30T00:33:15;11.53;;;5.00;;
82030;SDS011;71592;52.178;4.512;2023-09-30T00:35:40;8.90;;;4.20;;
82030;SDS011;71592;52.178;4.512;2023-09-30T00:38:06;7.93;;;4.60;;
82030;SDS011;71592;52.178;4.512;2023-09-30T00:40:31;9.50;;;4.70;;
82030;SDS011;71592;52.178;4.512;2023-09-30T00:42:57;8.73;;;4.93;;
82030;SDS011;71592;52.178;4.512;2023-09-30T00:45:22;8.40;;;4.43;;
82030;SDS011;71592;52.178;4.512;2023-09-30T00:47:48;8.25;;;4.60;;
82030;SDS011;71592;52.178;4.512;2023-09-30T00:50:13;9.02;;;3.83;;
82030;SDS011;71592;52.178;4.512;2023-09-30T00:52:39;9.55;;;4.60;;
82030;SDS011;71592;52.178;4.512;2023-09-30T00:55:05;9.30;;;4.60;;
82030;SDS011;71592;52.178;4.512;2023-09-30T00:57:31;9.98;;;5.90;;
82030;SDS011;71592;52.178;4.512;2023-09-30T00:59:56;9.15;;;4.57;;
82030;SDS011;71592;52.178;4.512;2023-09-30T01:02:22;8.63;;;4.18;;
82030;SDS011;71592;52.178;4.512;2023-09-30T01:04:48;7.78;;;4.45;;
82030;SDS011;71592;52.178;4.512;2023-09-30T01:07:13;8.40;;;4.70;;
82030;SDS011;71592;52.178;4.512;2023-09-30T01:09:39;10.05;;;4.93;;
82030;SDS011;71592;52.178;4.512;2023-09-30T01:12:04;7.70;;;4.30;;
82030;SDS011;71592;52.178;4.512;2023-09-30T01:14:31;7.57;;;4.50;;
82030;SDS011;71592;52.178;4.512;2023-09-30T01:16:56;6.68;;;4.43;;
82030;SDS011;71592;52.178;4.512;2023-09-30T01:19:22;10.52;;;4.50;;
82030;SDS011;71592;52.178;4.512;2023-09-30T01:21:51;10.98;;;5.00;;
82030;SDS011;71592;52.178;4.512;2023-09-30T01:24:19;8.00;;;4.85;;
82030;SDS011;71592;52.178;4.512;2023-09-30T01:26:45;8.70;;;4.78;;
82030;SDS011;71592;52.178;4.512;2023-09-30T01:29:10;8.43;;;4.37;;
82030;SDS011;71592;52.178;4.512;2023-09-30T01:31:38;10.00;;;4.18;;
82030;SDS011;71592;52.178;4.512;2023-09-30T01:34:04;9.80;;;4.47;;
82030;SDS011;71592;52.178;4.512;2023-09-30T01:36:29;6.78;;;4.15;;
82030;SDS011;71592;52.178;4.512;2023-09-30T01:38:55;6.10;;;4.07;;
82030;SDS011;71592;52.178;4.512;2023-09-30T01:41:20;9.07;;;4.28;;
82030;SDS011;71592;52.178;4.512;2023-09-30T01:43:45;8.63;;;4.43;;
82030;SDS011;71592;52.178;4.512;2023-09-30T01:46:12;7.88;;;4.40;;
82030;SDS011;71592;52.178;4.512;2023-09-30T01:48:37;8.53;;;4.07;;
82030;SDS011;71592;52.178;4.512;2023-09-30T01:51:05;7.60;;;4.33;;
82030;SDS011;71592;52.178;4.512;2023-09-30T01:53:31;8.55;;;5.10;;
82030;SDS011;71592;52.178;4.512;2023-09-30T01:55:56;9.15;;;4.13;;
82030;SDS011;71592;52.178;4.512;2023-09-30T01:58:22;10.02;;;4.80;;
82030;SDS011;71592;52.178;4.512;2023-09-30T02:00:47;8.17;;;4.33;;
82030;SDS011;71592;52.178;4.512;2023-09-30T02:03:12;7.33;;;4.73;;
82030;SDS011;71592;52.178;4.512;2023-09-30T02:05:40;8.43;;;4.93;;
82030;SDS011;71592;52.178;4.512;2023-09-30T02:08:05;7.95;;;4.68;;
82030;SDS011;71592;52.178;4.512;2023-09-30T02:10:31;8.20;;;4.23;;
82030;SDS011;71592;52.178;4.512;2023-09-30T02:12:58;8.80;;;4.93;;
82030;SDS011;71592;52.178;4.512;2023-09-30T02:15:24;7.70;;;4.65;;
82030;SDS011;71592;52.178;4.512;2023-09-30T02:17:49;10.00;;;4.83;;
82030;SDS011;71592;52.178;4.512;2023-09-30T02:20:15;6.87;;;4.60;;
82030;SDS011;71592;52.178;4.512;2023-09-30T02:22:44;7.32;;;4.53;;
82030;SDS011;71592;52.178;4.512;2023-09-30T02:25:09;8.07;;;4.95;;
82030;SDS011;71592;52.178;4.512;2023-09-30T02:27:34;6.65;;;4.22;;
82030;SDS011;71592;52.178;4.512;2023-09-30T02:30:00;8.37;;;5.20;;
82030;SDS011;71592;52.178;4.512;2023-09-30T02:32:25;7.85;;;4.80;;
82030;SDS011;71592;52.178;4.512;2023-09-30T02:34:50;9.63;;;4.47;;
82030;SDS011;71592;52.178;4.512;2023-09-30T02:37:16;10.90;;;4.37;;
82030;SDS011;71592;52.178;4.512;2023-09-30T02:39:43;8.88;;;4.60;;
82030;SDS011;71592;52.178;4.512;2023-09-30T02:42:09;8.75;;;4.97;;
82030;SDS011;71592;52.178;4.512;2023-09-30T02:44:35;7.40;;;4.15;;
82030;SDS011;71592;52.178;4.512;2023-09-30T02:47:00;8.40;;;3.93;;
82030;SDS011;71592;52.178;4.512;2023-09-30T02:49:25;7.43;;;4.33;;
82030;SDS011;71592;52.178;4.512;2023-09-30T02:51:50;9.90;;;4.03;;
82030;SDS011;71592;52.178;4.512;2023-09-30T02:54:16;7.80;;;4.30;;
82030;SDS011;71592;52.178;4.512;2023-09-30T02:56:41;10.38;;;4.72;;
82030;SDS011;71592;52.178;4.512;2023-09-30T02:59:06;9.03;;;4.80;;
82030;SDS011;71592;52.178;4.512;2023-09-30T03:01:32;10.13;;;5.50;;
82030;SDS011;71592;52.178;4.512;2023-09-30T03:03:58;6.32;;;3.97;;
82030;SDS011;71592;52.178;4.512;2023-09-30T03:06:23;8.57;;;4.87;;
82030;SDS011;71592;52.178;4.512;2023-09-30T03:08:48;11.38;;;4.80;;
82030;SDS011;71592;52.178;4.512;2023-09-30T03:11:13;11.77;;;5.00;;
82030;SDS011;71592;52.178;4.512;2023-09-30T03:13:39;7.80;;;4.30;;
82030;SDS011;71592;52.178;4.512;2023-09-30T03:16:07;9.27;;;4.60;;
82030;SDS011;71592;52.178;4.512;2023-09-30T03:18:36;9.82;;;4.70;;
82030;SDS011;71592;52.178;4.512;2023-09-30T03:21:01;9.25;;;4.30;;
82030;SDS011;71592;52.178;4.512;2023-09-30T03:23:27;6.40;;;4.60;;
82030;SDS011;71592;52.178;4.512;2023-09-30T03:25:56;7.38;;;4.47;;
82030;SDS011;71592;52.178;4.512;2023-09-30T03:28:21;7.03;;;4.75;;
82030;SDS011;71592;52.178;4.512;2023-09-30T03:30:47;9.57;;;5.40;;
82030;SDS011;71592;52.178;4.512;2023-09-30T03:33:12;11.67;;;5.77;;
82030;SDS011;71592;52.178;4.512;2023-09-30T03:35:38;9.48;;;5.50;;
82030;SDS011;71592;52.178;4.512;2023-09-30T03:38:03;10.83;;;5.20;;
82030;SDS011;71592;52.178;4.512;2023-09-30T03:40:29;9.90;;;4.90;;
82030;SDS011;71592;52.178;4.512;2023-09-30T03:42:58;9.35;;;5.22;;
82030;SDS011;71592;52.178;4.512;2023-09-30T03:45:24;12.40;;;7.57;;
82030;SDS011;71592;52.178;4.512;2023-09-30T03:47:49;11.15;;;5.32;;
82030;SDS011;71592;52.178;4.512;2023-09-30T03:50:16;9.70;;;5.43;;
82030;SDS011;71592;52.178;4.512;2023-09-30T03:52:41;11.38;;;5.78;;
82030;SDS011;71592;52.178;4.512;2023-09-30T03:55:11;9.60;;;4.93;;
82030;SDS011;71592;52.178;4.512;2023-09-30T03:57:37;11.23;;;5.57;;
82030;SDS011;71592;52.178;4.512;2023-09-30T04:00:02;13.05;;;5.65;;
82030;SDS011;71592;52.178;4.512;2023-09-30T04:02:31;9.00;;;5.30;;
82030;SDS011;71592;52.178;4.512;2023-09-30T04:04:56;9.30;;;5.78;;
82030;SDS011;71592;52.178;4.512;2023-09-30T04:07:22;8.95;;;5.40;;
82030;SDS011;71592;52.178;4.512;2023-09-30T04:09:52;12.52;;;6.25;;
82030;SDS011;71592;52.178;4.512;2023-09-30T04:12:17;9.90;;;5.82;;
82030;SDS011;71592;52.178;4.512;2023-09-30T04:14:42;9.37;;;5.63;;
82030;SDS011;71592;52.178;4.512;2023-09-30T04:17:10;10.30;;;5.32;;
82030;SDS011;71592;52.178;4.512;2023-09-30T04:19:35;8.95;;;6.10;;
82030;SDS011;71592;52.178;4.512;2023-09-30T04:22:01;9.80;;;5.33;;
82030;SDS011;71592;52.178;4.512;2023-09-30T04:24:26;11.40;;;6.10;;
82030;SDS011;71592;52.178;4.512;2023-09-30T04:26:53;14.25;;;6.20;;
82030;SDS011;71592;52.178;4.512;2023-09-30T04:29:22;10.50;;;5.85;;
82030;SDS011;71592;52.178;4.512;2023-09-30T04:31:48;9.65;;;5.55;;
82030;SDS011;71592;52.178;4.512;2023-09-30T04:34:13;11.90;;;6.00;;
82030;SDS011;71592;52.178;4.512;2023-09-30T04:36:39;8.75;;;5.93;;
82030;SDS011;71592;52.178;4.512;2023-09-30T04:39:05;9.93;;;6.07;;
82030;SDS011;71592;52.178;4.512;2023-09-30T04:41:30;8.82;;;5.63;;
82030;SDS011;71592;52.178;4.512;2023-09-30T04:43:55;11.63;;;6.07;;
82030;SDS011;71592;52.178;4.512;2023-09-30T04:46:21;10.17;;;5.90;;
82030;SDS011;71592;52.178;4.512;2023-09-30T04:48:48;12.23;;;6.97;;
82030;SDS011;71592;52.178;4.512;2023-09-30T04:51:13;12.13;;;6.75;;
82030;SDS011;71592;52.178;4.512;2023-09-30T04:53:41;11.60;;;6.60;;
82030;SDS011;71592;52.178;4.512;2023-09-30T04:56:07;13.70;;;6.65;;
82030;SDS011;71592;52.178;4.512;2023-09-30T04:58:35;10.60;;;6.18;;
82030;SDS011;71592;52.178;4.512;2023-09-30T05:01:00;11.73;;;6.78;;
82030;SDS011;71592;52.178;4.512;2023-09-30T05:03:25;12.67;;;6.67;;
82030;SDS011;71592;52.178;4.512;2023-09-30T05:05:51;8.18;;;6.47;;
82030;SDS011;71592;52.178;4.512;2023-09-30T05:08:18;13.43;;;7.07;;
82030;SDS011;71592;52.178;4.512;2023-09-30T05:10:43;10.95;;;6.05;;
82030;SDS011;71592;52.178;4.512;2023-09-30T05:13:09;11.80;;;6.37;;
82030;SDS011;71592;52.178;4.512;2023-09-30T05:15:34;10.57;;;6.07;;
82030;SDS011;71592;52.178;4.512;2023-09-30T05:18:00;9.77;;;6.30;;
82030;SDS011;71592;52.178;4.512;2023-09-30T05:20:25;12.60;;;6.82;;
82030;SDS011;71592;52.178;4.512;2023-09-30T05:22:51;10.37;;;6.17;;
82030;SDS011;71592;52.178;4.512;2023-09-30T05:25:16;9.75;;;6.32;;
82030;SDS011;71592;52.178;4.512;2023-09-30T05:27:42;10.25;;;6.53;;
82030;SDS011;71592;52.178;4.512;2023-09-30T05:30:07;10.20;;;6.85;;
82030;SDS011;71592;52.178;4.512;2023-09-30T05:32:33;10.02;;;6.03;;
82030;SDS011;71592;52.178;4.512;2023-09-30T05:34:59;10.77;;;6.30;;
82030;SDS011;71592;52.178;4.512;2023-09-30T05:37:28;9.55;;;6.25;;
82030;SDS011;71592;52.178;4.512;2023-09-30T05:39:53;12.48;;;7.18;;
82030;SDS011;71592;52.178;4.512;2023-09-30T05:42:18;11.10;;;6.43;;
82030;SDS011;71592;52.178;4.512;2023-09-30T05:44:44;13.82;;;8.30;;
82030;SDS011;71592;52.178;4.512;2023-09-30T05:47:09;12.02;;;6.85;;
82030;SDS011;71592;52.178;4.512;2023-09-30T05:49:35;11.40;;;7.40;;
82030;SDS011;71592;52.178;4.512;2023-09-30T05:52:02;12.20;;;7.28;;
82030;SDS011;71592;52.178;4.512;2023-09-30T05:54:28;14.07;;;7.35;;
82030;SDS011;71592;52.178;4.512;2023-09-30T05:56:54;11.75;;;7.65;;
82030;SDS011;71592;52.178;4.512;2023-09-30T05:59:19;14.48;;;8.23;;
82030;SDS011;71592;52.178;4.512;2023-09-30T06:01:45;12.38;;;6.72;;
82030;SDS011;71592;52.178;4.512;2023-09-30T06:04:11;12.55;;;7.88;;
82030;SDS011;71592;52.178;4.512;2023-09-30T06:06:36;13.95;;;8.25;;
82030;SDS011;71592;52.178;4.512;2023-09-30T06:09:02;12.40;;;7.03;;
82030;SDS011;71592;52.178;4.512;2023-09-30T06:11:27;12.90;;;7.72;;
82030;SDS011;71592;52.178;4.512;2023-09-30T06:13:56;11.45;;;7.13;;
82030;SDS011;71592;52.178;4.512;2023-09-30T06:16:24;12.25;;;7.25;;
82030;SDS011;71592;52.178;4.512;2023-09-30T06:18:51;13.57;;;6.68;;
82030;SDS011;71592;52.178;4.512;2023-09-30T06:21:16;13.43;;;7.38;;
82030;SDS011;71592;52.178;4.512;2023-09-30T06:23:45;14.35;;;7.05;;
82030;SDS011;71592;52.178;4.512;2023-09-30T06:26:11;14.93;;;7.80;;
82030;SDS011;71592;52.178;4.512;2023-09-30T06:28:36;12.23;;;8.30;;
82030;SDS011;71592;52.178;4.512;2023-09-30T06:31:09;13.18;;;7.75;;
82030;SDS011;71592;52.178;4.512;2023-09-30T06:33:35;11.05;;;7.35;;
82030;SDS011;71592;52.178;4.512;2023-09-30T06:36:00;15.93;;;8.80;;
82030;SDS011;71592;52.178;4.512;2023-09-30T06:38:27;15.73;;;9.00;;
82030;SDS011;71592;52.178;4.512;2023-09-30T06:40:52;15.30;;;8.82;;
82030;SDS011;71592;52.178;4.512;2023-09-30T06:43:19;14.95;;;8.65;;
82030;SDS011;71592;52.178;4.512;2023-09-30T06:45:46;16.42;;;8.95;;
82030;SDS011;71592;52.178;4.512;2023-09-30T06:48:12;14.40;;;8.37;;
82030;SDS011;71592;52.178;4.512;2023-09-30T06:53:09;21.40;;;10.07;;
82030;SDS011;71592;52.178;4.512;2023-09-30T06:55:36;15.03;;;9.27;;
82030;SDS011;71592;52.178;4.512;2023-09-30T06:58:02;13.70;;;7.70;;
82030;SDS011;71592;52.178;4.512;2023-09-30T07:00:28;13.68;;;7.88;;
82030;SDS011;71592;52.178;4.512;2023-09-30T07:02:54;15.02;;;8.85;;
82030;SDS011;71592;52.178;4.512;2023-09-30T07:05:19;16.60;;;8.73;;
82030;SDS011;71592;52.178;4.512;2023-09-30T07:07:44;15.65;;;9.25;;
82030;SDS011;71592;52.178;4.512;2023-09-30T07:10:10;11.57;;;8.27;;
82030;SDS011;71592;52.178;4.512;2023-09-30T07:12:36;17.58;;;8.13;;
82030;SDS011;71592;52.178;4.512;2023-09-30T07:15:02;13.40;;;9.65;;
82030;SDS011;71592;52.178;4.512;2023-09-30T07:17:28;13.70;;;8.50;;
82030;SDS011;71592;52.178;4.512;2023-09-30T07:19:53;12.45;;;8.73;;
82030;SDS011;71592;52.178;4.512;2023-09-30T07:22:18;12.83;;;7.37;;
82030;SDS011;71592;52.178;4.512;2023-09-30T07:24:43;12.73;;;7.63;;
82030;SDS011;71592;52.178;4.512;2023-09-30T07:27:09;12.52;;;8.98;;
82030;SDS011;71592;52.178;4.512;2023-09-30T07:29:34;11.95;;;8.13;;
82030;SDS011;71592;52.178;4.512;2023-09-30T07:32:00;11.77;;;8.23;;
82030;SDS011;71592;52.178;4.512;2023-09-30T07:34:25;12.40;;;7.10;;
82030;SDS011;71592;52.178;4.512;2023-09-30T07:36:51;12.88;;;6.97;;
82030;SDS011;71592;52.178;4.512;2023-09-30T07:39:16;14.68;;;8.07;;
82030;SDS011;71592;52.178;4.512;2023-09-30T07:41:42;13.57;;;8.38;;
82030;SDS011;71592;52.178;4.512;2023-09-30T07:44:08;14.07;;;8.43;;
82030;SDS011;71592;52.178;4.512;2023-09-30T07:46:34;13.10;;;7.68;;
82030;SDS011;71592;52.178;4.512;2023-09-30T07:48:59;12.60;;;7.73;;
82030;SDS011;71592;52.178;4.512;2023-09-30T07:51:25;13.88;;;8.30;;
82030;SDS011;71592;52.178;4.512;2023-09-30T07:53:50;13.70;;;8.53;;
82030;SDS011;71592;52.178;4.512;2023-09-30T07:56:16;14.00;;;8.35;;
82030;SDS011;71592;52.178;4.512;2023-09-30T07:58:41;14.15;;;8.32;;
82030;SDS011;71592;52.178;4.512;2023-09-30T08:01:07;17.85;;;9.27;;
82030;SDS011;71592;52.178;4.512;2023-09-30T08:03:33;15.43;;;9.82;;
82030;SDS011;71592;52.178;4.512;2023-09-30T08:05:59;15.88;;;8.48;;
82030;SDS011;71592;52.178;4.512;2023-09-30T08:08:24;14.23;;;9.83;;
82030;SDS011;71592;52.178;4.512;2023-09-30T08:10:50;16.02;;;10.00;;
82030;SDS011;71592;52.178;4.512;2023-09-30T08:13:15;18.10;;;10.18;;
82030;SDS011;71592;52.178;4.512;2023-09-30T08:15:42;15.60;;;9.20;;
82030;SDS011;71592;52.178;4.512;2023-09-30T08:18:07;15.80;;;9.60;;
82030;SDS011;71592;52.178;4.512;2023-09-30T08:20:33;15.02;;;9.48;;
82030;SDS011;71592;52.178;4.512;2023-09-30T08:22:58;15.47;;;9.67;;
82030;SDS011;71592;52.178;4.512;2023-09-30T08:25:24;14.15;;;9.70;;
82030;SDS011;71592;52.178;4.512;2023-09-30T08:27:49;19.30;;;9.80;;
82030;SDS011;71592;52.178;4.512;2023-09-30T08:30:15;13.77;;;9.63;;
82030;SDS011;71592;52.178;4.512;2023-09-30T08:32:40;13.50;;;8.13;;
82030;SDS011;71592;52.178;4.512;2023-09-30T08:35:06;11.50;;;8.40;;
82030;SDS011;71592;52.178;4.512;2023-09-30T08:37:32;16.08;;;8.40;;
82030;SDS011;71592;52.178;4.512;2023-09-30T08:40:00;13.52;;;8.98;;
82030;SDS011;71592;52.178;4.512;2023-09-30T08:42:26;12.38;;;7.65;;
82030;SDS011;71592;52.178;4.512;2023-09-30T08:44:57;12.00;;;7.82;;
82030;SDS011;71592;52.178;4.512;2023-09-30T08:47:24;12.60;;;7.70;;
82030;SDS011;71592;52.178;4.512;2023-09-30T08:49:52;12.45;;;7.82;;
82030;SDS011;71592;52.178;4.512;2023-09-30T08:52:21;13.43;;;7.95;;
82030;SDS011;71592;52.178;4.512;2023-09-30T08:54:47;10.18;;;7.18;;
82030;SDS011;71592;52.178;4.512;2023-09-30T08:57:12;12.67;;;7.67;;
82030;SDS011;71592;52.178;4.512;2023-09-30T08:59:38;12.50;;;7.07;;
82030;SDS011;71592;52.178;4.512;2023-09-30T09:02:08;11.73;;;7.88;;
82030;SDS011;71592;52.178;4.512;2023-09-30T09:04:33;11.43;;;7.15;;
82030;SDS011;71592;52.178;4.512;2023-09-30T09:06:58;11.63;;;6.70;;
82030;SDS011;71592;52.178;4.512;2023-09-30T09:09:24;11.38;;;6.60;;
82030;SDS011;71592;52.178;4.512;2023-09-30T09:11:49;12.43;;;6.77;;
82030;SDS011;71592;52.178;4.512;2023-09-30T09:14:15;9.85;;;6.40;;
82030;SDS011;71592;52.178;4.512;2023-09-30T09:16:56;12.00;;;6.10;;
82030;SDS011;71592;52.178;4.512;2023-09-30T09:19:22;11.35;;;6.55;;
82030;SDS011;71592;52.178;4.512;2023-09-30T09:21:57;11.32;;;6.88;;
82030;SDS011;71592;52.178;4.512;2023-09-30T09:27:05;11.75;;;6.00;;
82030;SDS011;71592;52.178;4.512;2023-09-30T09:29:31;9.23;;;5.78;;
82030;SDS011;71592;52.178;4.512;2023-09-30T09:32:06;10.60;;;5.57;;
82030;SDS011;71592;52.178;4.512;2023-09-30T09:34:32;10.20;;;5.78;;
82030;SDS011;71592;52.178;4.512;2023-09-30T09:36:57;10.45;;;5.15;;
82030;SDS011;71592;52.178;4.512;2023-09-30T09:39:29;9.27;;;5.13;;
82030;SDS011;71592;52.178;4.512;2023-09-30T09:42:00;8.43;;;4.32;;
82030;SDS011;71592;52.178;4.512;2023-09-30T09:44:26;11.80;;;4.85;;
82030;SDS011;71592;52.178;4.512;2023-09-30T09:46:52;8.68;;;4.43;;
82030;SDS011;71592;52.178;4.512;2023-09-30T09:49:24;7.67;;;4.30;;
82030;SDS011;71592;52.178;4.512;2023-09-30T09:51:50;5.82;;;3.55;;
82030;SDS011;71592;52.178;4.512;2023-09-30T09:54:17;7.78;;;3.83;;
82030;SDS011;71592;52.178;4.512;2023-09-30T09:56:45;10.95;;;3.55;;
82030;SDS011;71592;52.178;4.512;2023-09-30T09:59:11;7.95;;;2.72;;
82030;SDS011;71592;52.178;4.512;2023-09-30T10:01:36;5.68;;;2.88;;
82030;SDS011;71592;52.178;4.512;2023-09-30T10:04:04;8.85;;;3.10;;
82030;SDS011;71592;52.178;4.512;2023-09-30T10:06:30;7.10;;;2.70;;
82030;SDS011;71592;52.178;4.512;2023-09-30T10:08:55;6.17;;;3.07;;
82030;SDS011;71592;52.178;4.512;2023-09-30T10:11:22;5.78;;;2.55;;
82030;SDS011;71592;52.178;4.512;2023-09-30T10:13:51;8.30;;;2.90;;
82030;SDS011;71592;52.178;4.512;2023-09-30T10:21:40;7.95;;;3.30;;
82030;SDS011;71592;52.178;4.512;2023-09-30T10:29:40;5.68;;;1.90;;
82030;SDS011;71592;52.178;4.512;2023-09-30T10:32:08;6.70;;;2.10;;
82030;SDS011;71592;52.178;4.512;2023-09-30T10:34:34;7.25;;;2.20;;
82030;SDS011;71592;52.178;4.512;2023-09-30T10:36:59;4.68;;;2.03;;
82030;SDS011;71592;52.178;4.512;2023-09-30T10:39:57;5.55;;;2.30;;
82030;SDS011;71592;52.178;4.512;2023-09-30T10:47:56;5.07;;;2.03;;
82030;SDS011;71592;52.178;4.512;2023-09-30T10:53:05;6.32;;;2.30;;
82030;SDS011;71592;52.178;4.512;2023-09-30T10:55:35;9.15;;;2.58;;
82030;SDS011;71592;52.178;4.512;2023-09-30T10:58:00;6.07;;;2.38;;
82030;SDS011;71592;52.178;4.512;2023-09-30T11:00:26;5.33;;;2.10;;
82030;SDS011;71592;52.178;4.512;2023-09-30T11:02:51;6.15;;;2.40;;
82030;SDS011;71592;52.178;4.512;2023-09-30T11:05:18;5.57;;;2.05;;
82030;SDS011;71592;52.178;4.512;2023-09-30T11:07:46;6.40;;;2.03;;
82030;SDS011;71592;52.178;4.512;2023-09-30T11:10:15;6.18;;;2.30;;
82030;SDS011;71592;52.178;4.512;2023-09-30T11:12:52;6.47;;;2.08;;
82030;SDS011;71592;52.178;4.512;2023-09-30T11:15:18;7.63;;;2.45;;
82030;SDS011;71592;52.178;4.512;2023-09-30T11:17:43;5.87;;;2.43;;
82030;SDS011;71592;52.178;4.512;2023-09-30T11:20:08;6.40;;;2.67;;
82030;SDS011;71592;52.178;4.512;2023-09-30T11:22:34;6.43;;;2.50;;
82030;SDS011;71592;52.178;4.512;2023-09-30T11:25:00;5.03;;;2.25;;
82030;SDS011;71592;52.178;4.512;2023-09-30T11:27:25;6.15;;;2.75;;
82030;SDS011;71592;52.178;4.512;2023-09-30T11:29:51;7.05;;;2.58;;
82030;SDS011;71592;52.178;4.512;2023-09-30T11:32:26;6.18;;;2.40;;
82030;SDS011;71592;52.178;4.512;2023-09-30T11:34:52;6.97;;;3.13;;
82030;SDS011;71592;52.178;4.512;2023-09-30T11:37:18;6.82;;;2.90;;
82030;SDS011;71592;52.178;4.512;2023-09-30T11:39:43;5.53;;;2.30;;
82030;SDS011;71592;52.178;4.512;2023-09-30T11:42:15;5.80;;;2.45;;
82030;SDS011;71592;52.178;4.512;2023-09-30T11:44:45;6.45;;;2.72;;
82030;SDS011;71592;52.178;4.512;2023-09-30T11:47:15;6.95;;;2.90;;
82030;SDS011;71592;52.178;4.512;2023-09-30T11:49:41;6.57;;;2.53;;
82030;SDS011;71592;52.178;4.512;2023-09-30T11:52:12;7.70;;;3.15;;
82030;SDS011;71592;52.178;4.512;2023-09-30T11:54:41;6.00;;;2.50;;
82030;SDS011;71592;52.178;4.512;2023-09-30T11:57:11;5.50;;;2.58;;
82030;SDS011;71592;52.178;4.512;2023-09-30T11:59:37;7.35;;;2.45;;
82030;SDS011;71592;52.178;4.512;2023-09-30T12:02:03;5.88;;;2.58;;
82030;SDS011;71592;52.178;4.512;2023-09-30T12:04:30;6.50;;;2.72;;
82030;SDS011;71592;52.178;4.512;2023-09-30T12:06:55;7.67;;;2.33;;
82030;SDS011;71592;52.178;4.512;2023-09-30T12:09:22;7.95;;;2.60;;
82030;SDS011;71592;52.178;4.512;2023-09-30T12:11:50;10.38;;;2.70;;
82030;SDS011;71592;52.178;4.512;2023-09-30T12:14:15;8.07;;;3.10;;
82030;SDS011;71592;52.178;4.512;2023-09-30T12:16:41;9.30;;;3.10;;
82030;SDS011;71592;52.178;4.512;2023-09-30T12:19:06;5.22;;;2.35;;
82030;SDS011;71592;52.178;4.512;2023-09-30T12:21:34;5.47;;;2.78;;
82030;SDS011;71592;52.178;4.512;2023-09-30T12:24:01;7.03;;;2.60;;
82030;SDS011;71592;52.178;4.512;2023-09-30T12:26:28;6.43;;;2.72;;
82030;SDS011;71592;52.178;4.512;2023-09-30T12:28:53;5.90;;;2.80;;
82030;SDS011;71592;52.178;4.512;2023-09-30T12:31:22;6.17;;;3.00;;
82030;SDS011;71592;52.178;4.512;2023-09-30T12:33:48;6.00;;;2.80;;
82030;SDS011;71592;52.178;4.512;2023-09-30T12:36:15;9.95;;;3.08;;
82030;SDS011;71592;52.178;4.512;2023-09-30T12:38:41;6.80;;;2.85;;
82030;SDS011;71592;52.178;4.512;2023-09-30T12:41:06;7.50;;;3.05;;
82030;SDS011;71592;52.178;4.512;2023-09-30T12:43:32;8.57;;;3.03;;
82030;SDS011;71592;52.178;4.512;2023-09-30T12:46:00;7.68;;;2.95;;
82030;SDS011;71592;52.178;4.512;2023-09-30T12:48:26;4.73;;;2.80;;
82030;SDS011;71592;52.178;4.512;2023-09-30T12:50:51;4.67;;;2.50;;
82030;SDS011;71592;52.178;4.512;2023-09-30T12:53:16;5.67;;;2.50;;
82030;SDS011;71592;52.178;4.512;2023-09-30T12:55:41;6.05;;;2.80;;
82030;SDS011;71592;52.178;4.512;2023-09-30T12:58:07;7.40;;;3.47;;
82030;SDS011;71592;52.178;4.512;2023-09-30T13:00:33;5.38;;;2.30;;
82030;SDS011;71592;52.178;4.512;2023-09-30T13:03:00;7.85;;;2.90;;
82030;SDS011;71592;52.178;4.512;2023-09-30T13:05:26;7.40;;;2.97;;
82030;SDS011;71592;52.178;4.512;2023-09-30T13:07:51;7.03;;;2.50;;
82030;SDS011;71592;52.178;4.512;2023-09-30T13:10:19;7.72;;;3.00;;
82030;SDS011;71592;52.178;4.512;2023-09-30T13:12:45;7.03;;;2.57;;
82030;SDS011;71592;52.178;4.512;2023-09-30T13:15:10;6.10;;;2.15;;
82030;SDS011;71592;52.178;4.512;2023-09-30T13:17:35;5.40;;;2.70;;
82030;SDS011;71592;52.178;4.512;2023-09-30T13:20:00;7.57;;;2.80;;
82030;SDS011;71592;52.178;4.512;2023-09-30T13:22:30;7.97;;;3.22;;
82030;SDS011;71592;52.178;4.512;2023-09-30T13:24:55;5.38;;;2.72;;
82030;SDS011;71592;52.178;4.512;2023-09-30T13:27:20;8.40;;;2.63;;
82030;SDS011;71592;52.178;4.512;2023-09-30T13:29:46;5.75;;;2.13;;
82030;SDS011;71592;52.178;4.512;2023-09-30T13:32:11;7.55;;;2.80;;
82030;SDS011;71592;52.178;4.512;2023-09-30T13:34:37;7.15;;;2.88;;
82030;SDS011;71592;52.178;4.512;2023-09-30T13:37:02;4.93;;;2.77;;
82030;SDS011;71592;52.178;4.512;2023-09-30T13:39:28;7.65;;;2.63;;
82030;SDS011;71592;52.178;4.512;2023-09-30T13:41:54;7.22;;;2.63;;
82030;SDS011;71592;52.178;4.512;2023-09-30T13:44:19;5.05;;;2.30;;
82030;SDS011;71592;52.178;4.512;2023-09-30T13:46:45;7.18;;;2.80;;
82030;SDS011;71592;52.178;4.512;2023-09-30T13:49:10;7.07;;;2.50;;
82030;SDS011;71592;52.178;4.512;2023-09-30T13:51:35;6.13;;;2.72;;
82030;SDS011;71592;52.178;4.512;2023-09-30T13:54:01;5.35;;;2.47;;
82030;SDS011;71592;52.178;4.512;2023-09-30T13:56:26;9.37;;;2.57;;
82030;SDS011;71592;52.178;4.512;2023-09-30T13:58:52;6.97;;;2.63;;
82030;SDS011;71592;52.178;4.512;2023-09-30T14:01:18;6.72;;;2.90;;
82030;SDS011;71592;52.178;4.512;2023-09-30T14:03:45;6.57;;;2.22;;
82030;SDS011;71592;52.178;4.512;2023-09-30T14:06:12;6.32;;;2.55;;
82030;SDS011;71592;52.178;4.512;2023-09-30T14:08:37;7.00;;;2.38;;
82030;SDS011;71592;52.178;4.512;2023-09-30T14:11:06;5.88;;;2.78;;
82030;SDS011;71592;52.178;4.512;2023-09-30T14:13:31;5.90;;;2.17;;
82030;SDS011;71592;52.178;4.512;2023-09-30T14:15:57;6.28;;;2.45;;
82030;SDS011;71592;52.178;4.512;2023-09-30T14:18:22;7.93;;;3.17;;
82030;SDS011;71592;52.178;4.512;2023-09-30T14:20:48;7.07;;;2.28;;
82030;SDS011;71592;52.178;4.512;2023-09-30T14:23:13;4.50;;;2.50;;
82030;SDS011;71592;52.178;4.512;2023-09-30T14:25:38;8.33;;;2.37;;
82030;SDS011;71592;52.178;4.512;2023-09-30T14:28:04;6.57;;;2.17;;
82030;SDS011;71592;52.178;4.512;2023-09-30T14:30:30;6.97;;;2.45;;
82030;SDS011;71592;52.178;4.512;2023-09-30T14:32:55;7.53;;;3.43;;
82030;SDS011;71592;52.178;4.512;2023-09-30T14:35:20;4.67;;;1.80;;
82030;SDS011;71592;52.178;4.512;2023-09-30T14:37:45;5.33;;;2.77;;
82030;SDS011;71592;52.178;4.512;2023-09-30T14:40:11;3.83;;;2.00;;
82030;SDS011;71592;52.178;4.512;2023-09-30T14:42:37;8.07;;;2.55;;
82030;SDS011;71592;52.178;4.512;2023-09-30T14:45:05;8.32;;;2.20;;
82030;SDS011;71592;52.178;4.512;2023-09-30T14:47:30;6.22;;;2.42;;
82030;SDS011;71592;52.178;4.512;2023-09-30T14:49:56;7.95;;;2.33;;
82030;SDS011;71592;52.178;4.512;2023-09-30T14:52:21;5.50;;;2.00;;
82030;SDS011;71592;52.178;4.512;2023-09-30T14:54:46;6.32;;;2.92;;
82030;SDS011;71592;52.178;4.512;2023-09-30T14:57:12;7.60;;;2.40;;
82030;SDS011;71592;52.178;4.512;2023-09-30T14:59:39;4.63;;;1.90;;
82030;SDS011;71592;52.178;4.512;2023-09-30T15:02:04;5.53;;;2.30;;